KLFT

Lafayette Regional / Paul Fournet Field Airport

Lafayette, Louisiana, USA
METAR KLFT 220953Z AUTO 00000KT 10SM CLR 24/23 A2997 RMK AO2 SLP147 T02390228 PWINO $
Observed Flight Rules
May-22 @ 09:53 UTC (21 minutes ago) Visual Flight Rules
Visibility Clouds
10 miles
  • Clear skies
Temperatures Readings
Current 24°C / 75°F
Dewpoint 23°C / 73°F
Humidity 94%
Altimeter 29.97" Hg
Pressure 1014.7 hPa
Elevation 11
METAR KLFT 220953Z AUTO 00000KT 10SM CLR 24/23 A2997 RMK AO2 SLP147 T02390228 PWINO $
Observed Flight Rules
May-22 @ 09:53 UTC
(21 minutes ago)
VFR
Clouds
  • Clear skies
Temperature Dewpoint
24°C / 75°F 23°C / 73°F
Humidity Altimeter Pressure
94% 29.97" Hg 1014.7 hPa